createdAt,value
2017-06-16T00:01:09.341Z,3.42
2017-06-16T00:03:37.635Z,3.17
2017-06-16T00:06:06.694Z,3.00
2017-06-16T00:08:35.044Z,4.70
2017-06-16T00:11:03.339Z,5.50
2017-06-16T00:13:32.384Z,6.37
2017-06-16T00:16:00.686Z,2.67
2017-06-16T00:18:29.827Z,4.07
2017-06-16T00:20:58.131Z,2.00
2017-06-16T00:23:27.341Z,3.67
2017-06-16T00:25:55.604Z,9.93
2017-06-16T00:28:24.014Z,3.83
2017-06-16T00:30:52.440Z,2.15
2017-06-16T00:33:21.879Z,1.80
2017-06-16T00:35:50.136Z,3.50
2017-06-16T00:38:18.444Z,4.80
2017-06-16T00:40:47.075Z,1.80
2017-06-16T00:43:15.457Z,3.12
2017-06-16T00:45:43.771Z,4.30
2017-06-16T00:48:12.053Z,5.00
2017-06-16T00:50:40.367Z,3.53
2017-06-16T00:53:08.663Z,2.42
2017-06-16T00:55:36.950Z,1.87
2017-06-16T00:58:05.999Z,4.75
2017-06-16T01:00:34.301Z,5.85
2017-06-16T01:03:03.400Z,5.45
2017-06-16T01:05:31.902Z,6.82
2017-06-16T01:08:00.263Z,5.20
2017-06-16T01:10:28.583Z,5.35
2017-06-16T01:12:56.895Z,4.65
2017-06-16T01:15:25.291Z,3.50
2017-06-16T01:17:54.814Z,5.97
2017-06-16T01:20:23.242Z,4.00
2017-06-16T01:22:51.524Z,3.55
2017-06-16T01:25:19.983Z,2.50
2017-06-16T01:27:49.040Z,4.20
2017-06-16T01:30:18.101Z,2.87
2017-06-16T01:32:46.391Z,5.72
2017-06-16T01:35:14.805Z,4.55
2017-06-16T01:37:43.119Z,3.87
2017-06-16T01:40:12.162Z,3.83
2017-06-16T01:42:40.637Z,3.70
2017-06-16T01:45:08.998Z,9.27
2017-06-16T01:47:37.372Z,6.05
2017-06-16T01:50:05.667Z,7.97
2017-06-16T01:52:34.711Z,3.65
2017-06-16T01:55:03.055Z,7.65
2017-06-16T01:57:31.427Z,5.57
2017-06-16T02:00:00.174Z,3.42
2017-06-16T02:02:28.587Z,5.28
2017-06-16T02:04:57.272Z,3.42
2017-06-16T02:07:26.339Z,4.35
2017-06-16T02:09:54.824Z,4.65
2017-06-16T02:12:23.967Z,7.90
2017-06-16T02:14:52.333Z,5.18
2017-06-16T02:17:20.694Z,4.65
2017-06-16T02:19:49.505Z,3.62
2017-06-16T02:22:18.555Z,5.20
2017-06-16T02:24:47.016Z,6.12
2017-06-16T02:27:16.019Z,4.60
2017-06-16T02:29:44.273Z,4.40
2017-06-16T02:32:12.588Z,6.10
2017-06-16T02:34:42.138Z,5.05
2017-06-16T02:37:10.486Z,7.85
2017-06-16T02:39:38.959Z,5.80
2017-06-16T02:42:07.235Z,4.30
2017-06-16T02:44:36.287Z,7.25
2017-06-16T02:47:04.560Z,8.02
2017-06-16T02:49:33.617Z,5.53
2017-06-16T02:52:01.931Z,5.47
2017-06-16T02:54:30.235Z,7.22
2017-06-16T02:56:58.685Z,6.95
2017-06-16T02:59:26.967Z,3.97
2017-06-16T03:01:55.265Z,6.32
2017-06-16T03:04:24.335Z,7.32
2017-06-16T03:06:53.383Z,7.65
2017-06-16T03:09:25.460Z,9.23
2017-06-16T03:11:53.737Z,7.82
2017-06-16T03:14:22.372Z,8.93
2017-06-16T03:16:50.635Z,6.20
2017-06-16T03:19:18.911Z,9.02
2017-06-16T03:21:51.047Z,7.03
2017-06-16T03:24:25.007Z,8.00
2017-06-16T03:26:53.614Z,13.10
2017-06-16T03:29:21.972Z,6.65
2017-06-16T03:31:50.331Z,6.07
2017-06-16T03:34:19.007Z,11.27
2017-06-16T03:36:47.307Z,12.55
2017-06-16T03:39:15.846Z,9.05
2017-06-16T03:41:44.191Z,7.62
2017-06-16T03:44:12.656Z,8.75
2017-06-16T03:46:41.031Z,8.65
2017-06-16T03:49:09.330Z,6.05
2017-06-16T03:51:38.668Z,12.02
2017-06-16T03:54:07.035Z,9.57
2017-06-16T03:56:35.448Z,9.93
2017-06-16T03:59:04.555Z,9.38
2017-06-16T04:01:32.843Z,9.30
2017-06-16T04:04:01.258Z,10.93
2017-06-16T04:06:29.670Z,6.07
2017-06-16T04:08:57.947Z,13.20
2017-06-16T04:11:26.300Z,14.25
2017-06-16T04:13:54.601Z,7.75
2017-06-16T04:16:23.654Z,11.93
2017-06-16T04:18:52.039Z,15.88
2017-06-16T04:21:20.462Z,11.50
2017-06-16T04:23:49.862Z,15.00
2017-06-16T04:26:18.324Z,10.52
2017-06-16T04:28:47.091Z,10.45
2017-06-16T04:31:16.223Z,14.48
2017-06-16T04:33:44.587Z,11.23
2017-06-16T04:36:12.875Z,12.23
2017-06-16T04:38:41.270Z,10.07
2017-06-16T04:41:09.547Z,11.52
2017-06-16T04:43:37.845Z,9.60
2017-06-16T04:46:06.107Z,7.30
2017-06-16T04:48:34.911Z,7.72
2017-06-16T04:51:03.187Z,11.02
2017-06-16T04:53:31.541Z,12.48
2017-06-16T04:55:59.823Z,14.02
2017-06-16T04:58:28.123Z,15.40
2017-06-16T05:00:56.412Z,14.45
2017-06-16T05:03:24.879Z,14.55
2017-06-16T05:05:53.262Z,11.23
2017-06-16T05:08:21.538Z,12.00
2017-06-16T05:10:49.834Z,8.07
2017-06-16T05:13:18.111Z,12.65
2017-06-16T05:15:46.618Z,13.13
2017-06-16T05:18:14.893Z,14.15
2017-06-16T05:20:43.843Z,19.35
2017-06-16T05:23:17.700Z,17.02
2017-06-16T05:25:46.003Z,12.55
2017-06-16T05:28:14.291Z,10.63
2017-06-16T05:30:43.348Z,16.77
2017-06-16T05:33:11.648Z,11.15
2017-06-16T05:35:40.683Z,15.13
2017-06-16T05:38:08.994Z,15.98
2017-06-16T05:40:37.310Z,14.40
2017-06-16T05:43:05.603Z,18.33
2017-06-16T05:45:34.650Z,19.02
2017-06-16T05:48:02.947Z,19.25
2017-06-16T05:50:31.991Z,11.57
2017-06-16T05:53:00.488Z,13.77
2017-06-16T05:55:28.760Z,13.13
2017-06-16T05:58:01.276Z,9.48
2017-06-16T06:00:34.907Z,16.55
2017-06-16T06:03:03.644Z,18.23
2017-06-16T06:05:31.960Z,13.07
2017-06-16T06:08:00.674Z,11.90
2017-06-16T06:10:29.153Z,13.05
2017-06-16T06:12:57.711Z,16.80
2017-06-16T06:15:26.016Z,13.70
2017-06-16T06:17:54.363Z,14.38
2017-06-16T06:20:23.419Z,16.23
2017-06-16T06:22:51.695Z,15.02
2017-06-16T06:25:19.988Z,14.50
2017-06-16T06:27:48.270Z,11.55
2017-06-16T06:30:16.563Z,15.85
2017-06-16T06:32:45.027Z,8.35
2017-06-16T06:35:13.422Z,16.48
2017-06-16T06:37:42.505Z,14.52
2017-06-16T06:40:11.556Z,17.80
2017-06-16T06:42:39.849Z,17.08
2017-06-16T06:45:08.204Z,16.60
2017-06-16T06:47:37.393Z,18.58
2017-06-16T06:50:06.462Z,16.15
2017-06-16T06:52:35.519Z,20.02
2017-06-16T06:55:03.799Z,14.18
2017-06-16T06:57:33.321Z,19.27
2017-06-16T07:00:02.400Z,12.20
2017-06-16T07:02:30.671Z,9.20
2017-06-16T07:04:59.435Z,18.02
2017-06-16T07:07:28.427Z,9.05
2017-06-16T07:09:56.833Z,14.40
2017-06-16T07:12:25.403Z,10.70
2017-06-16T07:14:53.694Z,12.65
2017-06-16T07:17:22.235Z,11.23
2017-06-16T07:19:50.551Z,13.85
2017-06-16T07:22:18.840Z,15.75
2017-06-16T07:24:47.127Z,16.40
2017-06-16T07:27:15.466Z,13.15
2017-06-16T07:29:43.751Z,14.15
2017-06-16T07:32:12.238Z,11.98
2017-06-16T07:34:41.304Z,14.48
2017-06-16T07:37:09.603Z,11.48
2017-06-16T07:39:37.890Z,14.95
2017-06-16T07:42:06.192Z,13.20
2017-06-16T07:44:35.455Z,15.38
2017-06-16T07:47:04.163Z,25.02
2017-06-16T07:49:32.603Z,15.50
2017-06-16T07:52:01.868Z,10.27
2017-06-16T07:54:30.963Z,17.15
2017-06-16T07:56:59.250Z,15.02
2017-06-16T07:59:27.611Z,13.05
2017-06-16T08:01:56.013Z,13.27
2017-06-16T08:04:24.339Z,13.52
2017-06-16T08:06:52.818Z,11.40
2017-06-16T08:09:21.183Z,14.60
2017-06-16T08:11:49.819Z,12.52
2017-06-16T08:14:18.324Z,12.30
2017-06-16T08:16:46.604Z,12.57
2017-06-16T08:19:15.012Z,11.77
2017-06-16T08:21:43.287Z,14.68
2017-06-16T08:24:12.381Z,12.95
2017-06-16T08:26:41.631Z,11.60
2017-06-16T08:29:10.142Z,9.32
2017-06-16T08:31:39.645Z,9.45
2017-06-16T08:34:08.408Z,11.80
2017-06-16T08:36:38.487Z,11.98
2017-06-16T08:39:07.602Z,9.40
2017-06-16T08:41:36.447Z,9.38
2017-06-16T08:44:04.739Z,12.10
2017-06-16T08:46:33.029Z,12.77
2017-06-16T08:49:01.878Z,9.75
2017-06-16T08:51:30.168Z,13.98
2017-06-16T08:53:58.480Z,10.43
2017-06-16T08:56:27.527Z,7.68
2017-06-16T08:58:56.011Z,7.60
2017-06-16T09:01:24.309Z,11.95
2017-06-16T09:03:52.764Z,9.93
2017-06-16T09:06:21.143Z,12.05
2017-06-16T09:08:49.445Z,11.38
2017-06-16T09:11:17.736Z,11.63
2017-06-16T09:13:46.793Z,10.35
2017-06-16T09:16:15.089Z,9.50
2017-06-16T09:18:44.232Z,13.25
2017-06-16T09:21:12.810Z,8.38
2017-06-16T09:23:41.159Z,10.70
2017-06-16T09:26:09.810Z,9.80
2017-06-16T09:28:38.191Z,8.27
2017-06-16T09:31:06.506Z,11.20
2017-06-16T09:33:34.956Z,7.85
2017-06-16T09:36:04.043Z,6.62
2017-06-16T09:38:33.104Z,14.38
2017-06-16T09:41:02.147Z,7.97
2017-06-16T09:43:30.438Z,7.78
2017-06-16T09:45:58.719Z,11.20
2017-06-16T09:48:27.204Z,10.60
2017-06-16T09:50:55.523Z,10.60
2017-06-16T09:53:23.825Z,8.15
2017-06-16T09:55:53.063Z,6.43
2017-06-16T09:58:22.043Z,11.82
2017-06-16T10:00:50.332Z,6.68
2017-06-16T10:03:18.611Z,6.18
2017-06-16T10:05:46.971Z,11.90
2017-06-16T10:08:15.686Z,14.02
2017-06-16T10:10:43.991Z,8.05
2017-06-16T10:13:12.319Z,11.18
2017-06-16T10:15:40.680Z,8.85
2017-06-16T10:18:09.041Z,7.82
2017-06-16T10:20:37.499Z,7.60
2017-06-16T10:23:06.075Z,6.43
2017-06-16T10:25:34.389Z,7.18
2017-06-16T10:28:02.663Z,7.12
2017-06-16T10:30:30.958Z,5.37
2017-06-16T10:32:59.238Z,6.78
2017-06-16T10:35:28.302Z,9.77
2017-06-16T10:37:56.764Z,8.10
2017-06-16T10:40:25.231Z,6.55
2017-06-16T10:42:53.531Z,7.12
2017-06-16T10:45:22.778Z,11.40
2017-06-16T10:47:51.182Z,9.20
2017-06-16T10:50:19.466Z,12.50
2017-06-16T10:52:47.775Z,7.03
2017-06-16T10:55:16.075Z,9.63
2017-06-16T10:57:44.485Z,5.25
2017-06-16T11:00:12.871Z,7.65
2017-06-16T11:02:41.141Z,7.05
2017-06-16T11:05:09.485Z,7.93
2017-06-16T11:07:37.757Z,7.95
2017-06-16T11:10:06.123Z,6.72
2017-06-16T11:12:34.407Z,9.98
2017-06-16T11:15:03.472Z,8.68
2017-06-16T11:17:32.561Z,10.05
2017-06-16T11:20:01.610Z,4.03
2017-06-16T11:22:30.843Z,6.72
2017-06-16T11:24:59.156Z,8.93
2017-06-16T11:27:27.435Z,9.25
2017-06-16T11:29:55.816Z,12.73
2017-06-16T11:32:24.851Z,10.52
2017-06-16T11:34:53.145Z,5.68
2017-06-16T11:37:22.294Z,7.45
2017-06-16T11:39:50.759Z,7.65
2017-06-16T11:42:19.123Z,8.75
2017-06-16T11:44:47.594Z,9.88
2017-06-16T11:47:15.893Z,12.75
2017-06-16T11:49:44.934Z,10.88
2017-06-16T11:52:14.140Z,4.47
2017-06-16T11:54:42.414Z,7.78
2017-06-16T11:57:10.781Z,6.62
2017-06-16T11:59:39.835Z,8.75
2017-06-16T12:02:08.138Z,6.00
2017-06-16T12:04:36.442Z,6.43
2017-06-16T12:07:05.118Z,3.92
2017-06-16T12:09:33.421Z,5.55
2017-06-16T12:12:02.539Z,7.40
2017-06-16T12:14:30.924Z,6.90
2017-06-16T12:16:59.337Z,7.07
2017-06-16T12:19:27.656Z,9.60
2017-06-16T12:21:55.965Z,5.68
2017-06-16T12:24:24.270Z,8.02
2017-06-16T12:26:52.567Z,10.90
2017-06-16T12:29:21.610Z,8.63
2017-06-16T12:31:49.883Z,7.10
2017-06-16T12:34:18.215Z,11.40
2017-06-16T12:36:46.500Z,7.57
2017-06-16T12:39:14.867Z,6.25
2017-06-16T12:41:43.432Z,10.55
2017-06-16T12:44:11.794Z,7.70
2017-06-16T12:46:40.156Z,9.43
2017-06-16T12:49:08.775Z,5.87
2017-06-16T12:51:37.295Z,9.45
2017-06-16T12:54:05.663Z,8.32
2017-06-16T12:56:34.635Z,4.62
2017-06-16T12:59:03.112Z,6.82
2017-06-16T13:01:31.388Z,8.60
2017-06-16T13:03:59.675Z,7.05
2017-06-16T13:06:27.999Z,5.43
2017-06-16T13:08:56.316Z,5.68
2017-06-16T13:11:24.685Z,9.82
2017-06-16T13:13:53.285Z,8.02
2017-06-16T13:16:22.252Z,7.43
2017-06-16T13:18:51.046Z,2.97
2017-06-16T13:21:19.434Z,8.80
2017-06-16T13:23:48.483Z,7.10
2017-06-16T13:26:17.028Z,5.62
2017-06-16T13:28:45.725Z,4.55
2017-06-16T13:31:14.192Z,5.90
2017-06-16T13:33:42.760Z,13.43
2017-06-16T13:36:11.128Z,5.75
2017-06-16T13:38:39.407Z,12.85
2017-06-16T13:41:08.572Z,10.07
2017-06-16T13:43:36.937Z,8.07
2017-06-16T13:46:05.267Z,12.02
2017-06-16T13:48:33.587Z,6.15
2017-06-16T13:51:01.999Z,8.05
2017-06-16T13:53:30.342Z,7.15
2017-06-16T13:55:58.738Z,5.03
2017-06-16T13:58:27.828Z,10.80
2017-06-16T14:00:56.107Z,6.45
2017-06-16T14:03:25.367Z,5.75
2017-06-16T14:05:54.553Z,8.20
2017-06-16T14:08:22.843Z,5.57
2017-06-16T14:10:51.258Z,8.00
2017-06-16T14:13:19.548Z,4.57
2017-06-16T14:15:47.828Z,5.85
2017-06-16T14:18:16.882Z,5.53
2017-06-16T14:20:45.155Z,3.87
2017-06-16T14:23:13.503Z,10.57
2017-06-16T14:25:41.891Z,5.57
2017-06-16T14:28:11.046Z,4.87
2017-06-16T14:30:39.398Z,5.03
2017-06-16T14:33:07.774Z,3.55
2017-06-16T14:35:36.131Z,5.12
2017-06-16T14:38:04.420Z,4.72
2017-06-16T14:40:32.767Z,4.05
2017-06-16T14:43:01.122Z,3.22
2017-06-16T14:45:29.398Z,6.97
2017-06-16T14:47:57.758Z,3.47
2017-06-16T14:50:26.255Z,5.00
2017-06-16T14:52:54.724Z,7.85
2017-06-16T14:55:23.770Z,4.68
2017-06-16T14:57:52.083Z,6.40
2017-06-16T15:00:20.394Z,7.60
2017-06-16T15:02:48.759Z,5.85
2017-06-16T15:05:17.051Z,5.82
2017-06-16T15:07:46.095Z,5.87
2017-06-16T15:10:14.451Z,7.10
2017-06-16T15:12:42.739Z,4.97
2017-06-16T15:15:11.120Z,7.97
2017-06-16T15:17:40.167Z,5.05
2017-06-16T15:20:08.503Z,10.43
2017-06-16T15:22:42.699Z,6.82
2017-06-16T15:25:10.998Z,10.18
2017-06-16T15:27:39.306Z,5.00
2017-06-16T15:30:07.602Z,5.80
2017-06-16T15:32:35.883Z,3.55
2017-06-16T15:35:04.435Z,6.37
2017-06-16T15:37:33.378Z,3.62
2017-06-16T15:40:01.678Z,4.45
2017-06-16T15:42:30.138Z,4.45
2017-06-16T15:44:58.503Z,4.50
2017-06-16T15:47:26.779Z,8.35
2017-06-16T15:49:55.330Z,3.85
2017-06-16T15:52:23.672Z,3.37
2017-06-16T15:54:51.965Z,4.93
2017-06-16T15:57:20.239Z,8.02
2017-06-16T15:59:49.336Z,2.83
2017-06-16T16:02:18.382Z,5.00
2017-06-16T16:04:47.016Z,4.12
2017-06-16T16:07:15.322Z,4.32
2017-06-16T16:09:43.606Z,6.97
2017-06-16T16:12:12.755Z,6.37
2017-06-16T16:14:41.525Z,5.82
2017-06-16T16:17:09.794Z,3.78
2017-06-16T16:19:38.085Z,3.67
2017-06-16T16:22:07.198Z,4.65
2017-06-16T16:24:35.495Z,6.62
2017-06-16T16:27:03.782Z,5.90
2017-06-16T16:29:32.887Z,6.28
2017-06-16T16:32:01.403Z,5.97
2017-06-16T16:34:29.711Z,5.50
2017-06-16T16:36:57.999Z,3.00
2017-06-16T16:39:26.414Z,6.93
2017-06-16T16:41:54.726Z,4.95
2017-06-16T16:44:22.999Z,5.68
2017-06-16T16:46:51.479Z,6.95
2017-06-16T16:49:19.754Z,4.25
2017-06-16T16:51:48.056Z,4.93
2017-06-16T16:54:16.341Z,4.05
2017-06-16T16:56:44.625Z,4.37
2017-06-16T16:59:12.899Z,5.45
2017-06-16T17:01:41.255Z,3.87
2017-06-16T17:04:09.615Z,5.32
2017-06-16T17:06:37.931Z,4.60
2017-06-16T17:09:06.271Z,6.57
2017-06-16T17:11:35.379Z,4.28
2017-06-16T17:14:04.093Z,3.25
2017-06-16T17:16:32.379Z,6.72
2017-06-16T17:19:01.424Z,5.68
2017-06-16T17:21:29.735Z,4.00
2017-06-16T17:23:58.087Z,5.70
2017-06-16T17:26:26.417Z,6.10
2017-06-16T17:28:54.730Z,7.07
2017-06-16T17:31:23.011Z,5.35
2017-06-16T17:33:51.427Z,6.00
2017-06-16T17:36:19.784Z,5.00
2017-06-16T17:38:48.070Z,5.57
2017-06-16T17:41:16.710Z,6.70
2017-06-16T17:43:45.067Z,4.70
2017-06-16T17:46:13.353Z,5.80
2017-06-16T17:48:41.931Z,5.07
2017-06-16T17:51:10.363Z,7.70
2017-06-16T17:53:38.695Z,6.05
2017-06-16T17:56:06.963Z,5.55
2017-06-16T17:58:35.348Z,3.60
2017-06-16T18:01:03.639Z,4.65
2017-06-16T18:03:32.694Z,3.58
2017-06-16T18:06:00.971Z,3.80
2017-06-16T18:08:29.288Z,3.97
2017-06-16T18:10:57.620Z,3.33
2017-06-16T18:13:25.902Z,4.93
2017-06-16T18:15:54.414Z,3.95
2017-06-16T18:18:22.717Z,2.65
2017-06-16T18:20:51.755Z,3.83
2017-06-16T18:23:20.162Z,3.35
2017-06-16T18:25:49.295Z,2.90
2017-06-16T18:28:17.724Z,3.95
2017-06-16T18:30:46.002Z,3.25
2017-06-16T18:33:14.289Z,2.40
2017-06-16T18:35:42.564Z,4.95
2017-06-16T18:38:10.909Z,1.37
2017-06-16T18:40:39.210Z,4.55
2017-06-16T18:43:08.243Z,3.37
2017-06-16T18:45:36.610Z,2.58
2017-06-16T18:48:04.882Z,2.08
2017-06-16T18:50:33.251Z,3.10
2017-06-16T18:53:02.397Z,3.10
2017-06-16T18:55:30.780Z,3.00
2017-06-16T18:57:59.340Z,4.65
2017-06-16T19:00:27.921Z,3.15
2017-06-16T19:02:56.324Z,4.65
2017-06-16T19:05:25.370Z,3.30
2017-06-16T19:07:53.761Z,4.50
2017-06-16T19:10:22.907Z,4.35
2017-06-16T19:12:51.196Z,6.80
2017-06-16T19:15:20.234Z,3.03
2017-06-16T19:17:48.560Z,4.05
2017-06-16T19:20:16.870Z,4.70
2017-06-16T19:22:45.156Z,3.03
2017-06-16T19:25:13.471Z,5.05
2017-06-16T19:27:41.760Z,5.95
2017-06-16T19:30:10.139Z,5.05
2017-06-16T19:32:38.411Z,4.90
2017-06-16T19:35:08.450Z,4.28
2017-06-16T19:37:36.759Z,3.35
2017-06-16T19:40:05.042Z,7.97
2017-06-16T19:42:33.373Z,4.10
2017-06-16T19:45:01.734Z,4.10
2017-06-16T19:47:30.094Z,3.65
2017-06-16T19:49:58.463Z,4.60
2017-06-16T19:52:26.755Z,6.07
2017-06-16T19:54:55.804Z,8.57
2017-06-16T19:57:24.123Z,4.70
2017-06-16T19:59:52.559Z,4.72
2017-06-16T20:02:20.808Z,4.50
2017-06-16T20:04:49.306Z,5.40
2017-06-16T20:07:17.611Z,5.15
2017-06-16T20:09:45.898Z,3.35
2017-06-16T20:12:14.192Z,3.30
2017-06-16T20:14:42.511Z,4.28
2017-06-16T20:17:10.974Z,3.87
2017-06-16T20:19:39.424Z,5.28
2017-06-16T20:22:08.107Z,3.15
2017-06-16T20:24:37.451Z,2.55
2017-06-16T20:27:05.967Z,7.32
2017-06-16T20:29:34.367Z,3.25
2017-06-16T20:32:03.399Z,3.53
2017-06-16T20:34:32.066Z,4.07
2017-06-16T20:37:00.439Z,5.50
2017-06-16T20:39:28.801Z,5.15
2017-06-16T20:41:57.882Z,3.83
2017-06-16T20:44:26.189Z,4.25
2017-06-16T20:46:54.914Z,4.87
2017-06-16T20:49:23.371Z,5.35
2017-06-16T20:51:52.232Z,5.93
2017-06-16T20:54:20.551Z,5.15
2017-06-16T20:56:48.841Z,3.92
2017-06-16T20:59:17.377Z,5.28
2017-06-16T21:01:45.663Z,6.68
2017-06-16T21:04:14.246Z,4.80
2017-06-16T21:06:42.693Z,6.20
2017-06-16T21:09:11.951Z,5.00
2017-06-16T21:11:40.264Z,5.43
2017-06-16T21:14:08.532Z,4.82
2017-06-16T21:16:37.019Z,5.03
2017-06-16T21:19:05.296Z,2.87
2017-06-16T21:21:33.579Z,5.82
2017-06-16T21:24:02.753Z,5.50
2017-06-16T21:26:31.081Z,4.05
2017-06-16T21:28:59.470Z,6.18
2017-06-16T21:31:28.527Z,4.32
2017-06-16T21:33:57.106Z,5.32
2017-06-16T21:36:25.387Z,5.12
2017-06-16T21:38:54.423Z,6.05
2017-06-16T21:41:22.746Z,8.52
2017-06-16T21:43:51.027Z,5.25
2017-06-16T21:46:19.378Z,6.50
2017-06-16T21:48:47.716Z,11.32
2017-06-16T21:51:16.763Z,9.77
2017-06-16T21:53:45.051Z,10.68
2017-06-16T21:56:13.345Z,5.60
2017-06-16T21:58:41.614Z,5.95
2017-06-16T22:01:09.903Z,5.20
2017-06-16T22:03:38.186Z,5.40
2017-06-16T22:06:06.470Z,9.27
2017-06-16T22:08:35.519Z,5.22
2017-06-16T22:11:03.878Z,5.20
2017-06-16T22:13:32.950Z,7.70
2017-06-16T22:16:01.318Z,7.00
2017-06-16T22:18:30.416Z,3.28
2017-06-16T22:20:58.780Z,5.70
2017-06-16T22:23:27.075Z,4.72
2017-06-16T22:25:55.590Z,5.05
2017-06-16T22:28:24.732Z,7.65
2017-06-16T22:30:53.003Z,8.85
2017-06-16T22:33:21.359Z,3.87
2017-06-16T22:35:49.819Z,7.25
2017-06-16T22:38:18.214Z,5.47
2017-06-16T22:40:46.548Z,5.62
2017-06-16T22:43:14.906Z,7.95
2017-06-16T22:45:43.321Z,4.97
2017-06-16T22:48:11.738Z,9.20
2017-06-16T22:50:40.035Z,9.77
2017-06-16T22:53:08.311Z,7.03
2017-06-16T22:55:36.589Z,6.12
2017-06-16T22:58:04.887Z,6.47
2017-06-16T23:00:33.157Z,5.93
2017-06-16T23:03:01.442Z,5.75
2017-06-16T23:05:30.553Z,4.97
2017-06-16T23:07:58.859Z,5.93
2017-06-16T23:10:27.867Z,5.85
2017-06-16T23:12:56.138Z,6.12
2017-06-16T23:15:24.554Z,6.05
2017-06-16T23:17:52.923Z,5.90
2017-06-16T23:20:21.383Z,4.20
2017-06-16T23:22:49.674Z,3.80
2017-06-16T23:25:18.143Z,6.00
2017-06-16T23:27:47.224Z,2.87
2017-06-16T23:30:16.375Z,6.45
2017-06-16T23:32:44.940Z,6.18
2017-06-16T23:35:13.321Z,10.60
2017-06-16T23:37:41.771Z,9.32
2017-06-16T23:40:10.127Z,6.68
2017-06-16T23:42:38.600Z,5.70
2017-06-16T23:45:06.883Z,5.30
2017-06-16T23:47:35.341Z,7.90
2017-06-16T23:50:03.629Z,10.02
2017-06-16T23:52:32.168Z,7.22
2017-06-16T23:55:00.450Z,8.48
2017-06-16T23:57:29.492Z,6.40
2017-06-16T23:59:57.867Z,6.60
